sensor_id;sensor_type;location;lat;lon;timestamp;pressure;altitude;pressure_sealevel;temperature;humidity
9423;BME280;65863;49.506;10.400;2024-03-08T00:01:28;98142.09;;;-0.56;87.80
9423;BME280;65863;49.506;10.400;2024-03-08T00:04:11;98117.16;;;-0.62;87.48
9423;BME280;65863;49.506;10.400;2024-03-08T00:06:56;98133.72;;;-0.47;87.78
9423;BME280;65863;49.506;10.400;2024-03-08T00:09:39;98092.72;;;-0.54;87.47
9423;BME280;65863;49.506;10.400;2024-03-08T00:12:24;98063.34;;;-0.72;87.28
9423;BME280;65863;49.506;10.400;2024-03-08T00:15:14;98060.69;;;-0.96;87.48
9423;BME280;65863;49.506;10.400;2024-03-08T00:17:58;98128.19;;;-0.62;87.88
9423;BME280;65863;49.506;10.400;2024-03-08T00:20:42;98124.66;;;-0.77;88.44
9423;BME280;65863;49.506;10.400;2024-03-08T00:23:27;98128.94;;;-0.76;88.59
9423;BME280;65863;49.506;10.400;2024-03-08T00:26:12;98108.38;;;-0.90;89.06
9423;BME280;65863;49.506;10.400;2024-03-08T00:28:56;98135.63;;;-0.53;88.35
9423;BME280;65863;49.506;10.400;2024-03-08T00:31:41;98119.44;;;-0.60;88.21
9423;BME280;65863;49.506;10.400;2024-03-08T00:34:25;98072.44;;;-0.81;88.36
9423;BME280;65863;49.506;10.400;2024-03-08T00:37:09;98063.06;;;-0.89;88.17
9423;BME280;65863;49.506;10.400;2024-03-08T00:39:54;98103.06;;;-0.64;88.51
9423;BME280;65863;49.506;10.400;2024-03-08T00:42:38;98113.38;;;-0.49;88.76
9423;BME280;65863;49.506;10.400;2024-03-08T00:45:23;98096.81;;;-0.64;88.61
9423;BME280;65863;49.506;10.400;2024-03-08T00:48:08;98116.03;;;-0.55;88.90
9423;BME280;65863;49.506;10.400;2024-03-08T00:50:53;98109.34;;;-0.78;89.41
9423;BME280;65863;49.506;10.400;2024-03-08T00:53:37;98080.56;;;-1.16;89.57
9423;BME280;65863;49.506;10.400;2024-03-08T00:56:21;98089.03;;;-1.20;90.08
9423;BME280;65863;49.506;10.400;2024-03-08T00:59:06;98060.03;;;-1.30;90.19
9423;BME280;65863;49.506;10.400;2024-03-08T01:01:51;98098.34;;;-1.17;90.63
9423;BME280;65863;49.506;10.400;2024-03-08T01:04:35;98115.56;;;-1.08;90.98
9423;BME280;65863;49.506;10.400;2024-03-08T01:07:19;98118.88;;;-1.04;90.80
9423;BME280;65863;49.506;10.400;2024-03-08T01:10:04;98092.06;;;-1.18;91.04
9423;BME280;65863;49.506;10.400;2024-03-08T01:12:48;98066.91;;;-1.50;91.17
9423;BME280;65863;49.506;10.400;2024-03-08T01:15:33;98085.63;;;-1.39;91.32
9423;BME280;65863;49.506;10.400;2024-03-08T01:18:17;98120.28;;;-1.23;91.23
9423;BME280;65863;49.506;10.400;2024-03-08T01:21:03;98023.03;;;-2.02;92.16
9423;BME280;65863;49.506;10.400;2024-03-08T01:23:47;98070.13;;;-1.76;92.79
9423;BME280;65863;49.506;10.400;2024-03-08T01:26:32;98092.91;;;-1.51;92.74
9423;BME280;65863;49.506;10.400;2024-03-08T01:29:17;98086.53;;;-1.57;93.04
9423;BME280;65863;49.506;10.400;2024-03-08T01:32:01;98055.66;;;-1.85;93.82
9423;BME280;65863;49.506;10.400;2024-03-08T01:34:46;97995.38;;;-2.32;94.20
9423;BME280;65863;49.506;10.400;2024-03-08T01:37:30;98051.59;;;-1.99;94.81
9423;BME280;65863;49.506;10.400;2024-03-08T01:40:14;98058.34;;;-2.00;94.72
9423;BME280;65863;49.506;10.400;2024-03-08T01:43:16;98030.44;;;-2.17;95.13
9423;BME280;65863;49.506;10.400;2024-03-08T01:46:01;98063.44;;;-1.84;95.53
9423;BME280;65863;49.506;10.400;2024-03-08T01:48:45;98040.88;;;-1.97;95.14
9423;BME280;65863;49.506;10.400;2024-03-08T01:51:30;98059.56;;;-2.01;95.50
9423;BME280;65863;49.506;10.400;2024-03-08T01:54:16;98010.72;;;-2.16;95.51
9423;BME280;65863;49.506;10.400;2024-03-08T01:57:01;98026.88;;;-2.09;95.03
9423;BME280;65863;49.506;10.400;2024-03-08T01:59:45;97999.81;;;-2.34;95.28
9423;BME280;65863;49.506;10.400;2024-03-08T02:02:32;98047.06;;;-2.12;95.70
9423;BME280;65863;49.506;10.400;2024-03-08T02:05:16;98035.78;;;-2.14;96.53
9423;BME280;65863;49.506;10.400;2024-03-08T02:08:00;98032.50;;;-2.03;96.14
9423;BME280;65863;49.506;10.400;2024-03-08T02:10:44;98037.59;;;-2.11;96.29
9423;BME280;65863;49.506;10.400;2024-03-08T02:13:28;98018.13;;;-2.31;96.63
9423;BME280;65863;49.506;10.400;2024-03-08T02:16:12;97992.38;;;-2.43;96.42
9423;BME280;65863;49.506;10.400;2024-03-08T02:18:56;98017.84;;;-2.33;96.63
9423;BME280;65863;49.506;10.400;2024-03-08T02:21:40;98010.22;;;-2.38;96.77
9423;BME280;65863;49.506;10.400;2024-03-08T02:24:24;98002.66;;;-2.53;97.46
9423;BME280;65863;49.506;10.400;2024-03-08T02:27:09;98023.34;;;-2.33;97.73
9423;BME280;65863;49.506;10.400;2024-03-08T02:29:56;98025.16;;;-2.30;97.89
9423;BME280;65863;49.506;10.400;2024-03-08T02:32:40;97995.75;;;-2.48;97.93
9423;BME280;65863;49.506;10.400;2024-03-08T02:35:24;97997.78;;;-2.58;98.42
9423;BME280;65863;49.506;10.400;2024-03-08T02:38:08;98016.03;;;-2.36;97.86
9423;BME280;65863;49.506;10.400;2024-03-08T02:40:53;97981.03;;;-2.69;98.50
9423;BME280;65863;49.506;10.400;2024-03-08T02:43:37;97996.25;;;-2.59;98.18
9423;BME280;65863;49.506;10.400;2024-03-08T02:46:21;97940.47;;;-2.84;98.04
9423;BME280;65863;49.506;10.400;2024-03-08T02:49:06;97972.66;;;-2.42;97.90
9423;BME280;65863;49.506;10.400;2024-03-08T02:51:52;97963.38;;;-2.20;97.25
9423;BME280;65863;49.506;10.400;2024-03-08T02:54:37;97975.28;;;-2.14;96.89
9423;BME280;65863;49.506;10.400;2024-03-08T02:57:21;97940.22;;;-2.28;97.28
9423;BME280;65863;49.506;10.400;2024-03-08T03:00:06;97931.63;;;-2.21;96.95
9423;BME280;65863;49.506;10.400;2024-03-08T03:02:52;97979.91;;;-1.71;96.87
9423;BME280;65863;49.506;10.400;2024-03-08T03:05:37;97914.03;;;-1.99;96.40
9423;BME280;65863;49.506;10.400;2024-03-08T03:08:21;97907.00;;;-2.00;96.31
9423;BME280;65863;49.506;10.400;2024-03-08T03:11:06;97963.72;;;-1.40;95.62
9423;BME280;65863;49.506;10.400;2024-03-08T03:13:51;97964.09;;;-1.47;95.78
9423;BME280;65863;49.506;10.400;2024-03-08T03:16:36;97952.00;;;-1.49;95.85
9423;BME280;65863;49.506;10.400;2024-03-08T03:19:20;97971.81;;;-1.21;95.96
9423;BME280;65863;49.506;10.400;2024-03-08T03:22:04;97913.75;;;-1.62;96.04
9423;BME280;65863;49.506;10.400;2024-03-08T03:24:49;97941.41;;;-1.42;96.07
9423;BME280;65863;49.506;10.400;2024-03-08T03:27:37;97948.34;;;-1.31;96.28
9423;BME280;65863;49.506;10.400;2024-03-08T03:30:24;97968.84;;;-1.02;96.02
9423;BME280;65863;49.506;10.400;2024-03-08T03:33:12;97963.91;;;-0.98;95.33
9423;BME280;65863;49.506;10.400;2024-03-08T03:35:58;97937.53;;;-1.20;95.18
9423;BME280;65863;49.506;10.400;2024-03-08T03:38:44;97877.78;;;-1.44;94.79
9423;BME280;65863;49.506;10.400;2024-03-08T03:41:28;97927.44;;;-1.23;94.70
9423;BME280;65863;49.506;10.400;2024-03-08T03:44:12;97934.25;;;-1.04;94.67
9423;BME280;65863;49.506;10.400;2024-03-08T03:46:56;97912.72;;;-1.20;94.80
9423;BME280;65863;49.506;10.400;2024-03-08T03:49:41;97914.13;;;-1.10;94.08
9423;BME280;65863;49.506;10.400;2024-03-08T03:52:25;97934.84;;;-0.99;94.09
9423;BME280;65863;49.506;10.400;2024-03-08T03:55:10;97938.47;;;-0.93;94.59
9423;BME280;65863;49.506;10.400;2024-03-08T03:57:55;97919.66;;;-0.95;93.91
9423;BME280;65863;49.506;10.400;2024-03-08T04:00:39;97942.81;;;-0.87;94.21
9423;BME280;65863;49.506;10.400;2024-03-08T04:03:24;97948.88;;;-0.82;94.49
9423;BME280;65863;49.506;10.400;2024-03-08T04:06:09;97896.75;;;-1.16;94.32
9423;BME280;65863;49.506;10.400;2024-03-08T04:08:55;97908.72;;;-1.04;94.11
9423;BME280;65863;49.506;10.400;2024-03-08T04:11:39;97937.78;;;-0.88;94.23
9423;BME280;65863;49.506;10.400;2024-03-08T04:14:24;97912.41;;;-0.92;94.08
9423;BME280;65863;49.506;10.400;2024-03-08T04:17:08;97918.59;;;-0.97;94.35
9423;BME280;65863;49.506;10.400;2024-03-08T04:19:55;97904.72;;;-1.03;93.90
9423;BME280;65863;49.506;10.400;2024-03-08T04:22:40;97916.97;;;-0.89;93.80
9423;BME280;65863;49.506;10.400;2024-03-08T04:25:24;97912.22;;;-0.89;93.96
9423;BME280;65863;49.506;10.400;2024-03-08T04:28:08;97885.22;;;-0.99;93.65
9423;BME280;65863;49.506;10.400;2024-03-08T04:30:55;97863.72;;;-1.16;93.63
9423;BME280;65863;49.506;10.400;2024-03-08T04:33:39;97890.75;;;-0.99;93.81
9423;BME280;65863;49.506;10.400;2024-03-08T04:36:23;97885.94;;;-1.05;93.88
9423;BME280;65863;49.506;10.400;2024-03-08T04:39:08;97894.75;;;-1.00;93.90
9423;BME280;65863;49.506;10.400;2024-03-08T04:42:02;97904.53;;;-0.99;93.86
9423;BME280;65863;49.506;10.400;2024-03-08T04:44:54;97922.31;;;-1.00;94.20
9423;BME280;65863;49.506;10.400;2024-03-08T04:47:38;97901.19;;;-1.04;93.75
9423;BME280;65863;49.506;10.400;2024-03-08T04:50:23;97894.56;;;-1.12;94.18
9423;BME280;65863;49.506;10.400;2024-03-08T04:53:07;97921.72;;;-0.90;94.27
9423;BME280;65863;49.506;10.400;2024-03-08T04:55:51;97907.00;;;-1.01;93.88
9423;BME280;65863;49.506;10.400;2024-03-08T04:58:35;97904.91;;;-1.07;93.80
9423;BME280;65863;49.506;10.400;2024-03-08T05:01:20;97878.72;;;-1.17;93.93
9423;BME280;65863;49.506;10.400;2024-03-08T05:04:04;97837.25;;;-1.43;94.17
9423;BME280;65863;49.506;10.400;2024-03-08T05:06:49;97921.88;;;-0.78;93.70
9423;BME280;65863;49.506;10.400;2024-03-08T05:09:33;97894.47;;;-1.02;94.14
9423;BME280;65863;49.506;10.400;2024-03-08T05:12:18;97893.31;;;-1.11;94.06
9423;BME280;65863;49.506;10.400;2024-03-08T05:15:02;97890.88;;;-1.09;93.83
9423;BME280;65863;49.506;10.400;2024-03-08T05:17:49;97896.28;;;-1.14;93.83
9423;BME280;65863;49.506;10.400;2024-03-08T05:20:33;97863.72;;;-1.46;93.96
9423;BME280;65863;49.506;10.400;2024-03-08T05:23:17;97873.50;;;-1.30;94.16
9423;BME280;65863;49.506;10.400;2024-03-08T05:26:03;97902.16;;;-1.07;94.23
9423;BME280;65863;49.506;10.400;2024-03-08T05:28:48;97886.31;;;-1.12;94.11
9423;BME280;65863;49.506;10.400;2024-03-08T05:31:43;97858.69;;;-1.32;94.31
9423;BME280;65863;49.506;10.400;2024-03-08T05:34:29;97909.94;;;-1.05;94.49
9423;BME280;65863;49.506;10.400;2024-03-08T05:37:13;97875.22;;;-1.17;94.49
9423;BME280;65863;49.506;10.400;2024-03-08T05:39:57;97892.41;;;-1.08;94.68
9423;BME280;65863;49.506;10.400;2024-03-08T05:42:42;97898.16;;;-0.91;94.46
9423;BME280;65863;49.506;10.400;2024-03-08T05:45:26;97897.97;;;-0.87;94.19
9423;BME280;65863;49.506;10.400;2024-03-08T05:48:10;97884.03;;;-1.28;94.11
9423;BME280;65863;49.506;10.400;2024-03-08T05:50:56;97875.00;;;-1.74;94.51
9423;BME280;65863;49.506;10.400;2024-03-08T05:53:41;97889.22;;;-1.75;95.11
9423;BME280;65863;49.506;10.400;2024-03-08T05:56:24;97864.69;;;-2.03;95.88
9423;BME280;65863;49.506;10.400;2024-03-08T05:59:10;97904.03;;;-1.73;95.58
9423;BME280;65863;49.506;10.400;2024-03-08T06:01:54;97860.00;;;-2.27;95.46
9423;BME280;65863;49.506;10.400;2024-03-08T06:04:40;97865.78;;;-2.25;96.07
9423;BME280;65863;49.506;10.400;2024-03-08T06:07:26;97859.09;;;-2.33;96.33
9423;BME280;65863;49.506;10.400;2024-03-08T06:10:10;97875.72;;;-2.27;96.80
9423;BME280;65863;49.506;10.400;2024-03-08T06:12:56;97876.66;;;-2.30;97.22
9423;BME280;65863;49.506;10.400;2024-03-08T06:15:40;97809.88;;;-2.70;97.60
9423;BME280;65863;49.506;10.400;2024-03-08T06:18:26;97875.66;;;-2.18;97.88
9423;BME280;65863;49.506;10.400;2024-03-08T06:21:11;97888.31;;;-2.11;98.28
9423;BME280;65863;49.506;10.400;2024-03-08T06:23:56;97880.16;;;-2.05;98.48
9423;BME280;65863;49.506;10.400;2024-03-08T06:26:41;97868.13;;;-1.93;98.70
9423;BME280;65863;49.506;10.400;2024-03-08T06:29:25;97904.03;;;-1.73;98.65
9423;BME280;65863;49.506;10.400;2024-03-08T06:32:10;97901.78;;;-1.59;98.50
9423;BME280;65863;49.506;10.400;2024-03-08T06:34:54;97875.75;;;-1.73;98.58
9423;BME280;65863;49.506;10.400;2024-03-08T06:37:39;97880.69;;;-1.62;98.61
9423;BME280;65863;49.506;10.400;2024-03-08T06:40:24;97894.97;;;-1.49;98.80
9423;BME280;65863;49.506;10.400;2024-03-08T06:43:09;97811.59;;;-1.79;98.07
9423;BME280;65863;49.506;10.400;2024-03-08T06:46:01;97810.09;;;-1.65;98.04
9423;BME280;65863;49.506;10.400;2024-03-08T06:48:45;97854.41;;;-1.18;97.73
9423;BME280;65863;49.506;10.400;2024-03-08T06:51:29;97881.63;;;-1.06;97.02
9423;BME280;65863;49.506;10.400;2024-03-08T06:54:13;97871.72;;;-0.82;96.86
9423;BME280;65863;49.506;10.400;2024-03-08T06:56:58;97884.91;;;-0.72;96.38
9423;BME280;65863;49.506;10.400;2024-03-08T06:59:42;97864.72;;;-0.63;96.18
9423;BME280;65863;49.506;10.400;2024-03-08T07:02:26;97905.78;;;-0.29;95.26
9423;BME280;65863;49.506;10.400;2024-03-08T07:05:11;97882.94;;;-0.30;94.38
9423;BME280;65863;49.506;10.400;2024-03-08T07:07:56;97892.75;;;-0.08;94.92
9423;BME280;65863;49.506;10.400;2024-03-08T07:10:40;97848.88;;;-0.06;93.34
9423;BME280;65863;49.506;10.400;2024-03-08T07:13:29;97847.97;;;0.03;92.95
9423;BME280;65863;49.506;10.400;2024-03-08T07:16:13;97879.16;;;0.35;92.53
9423;BME280;65863;49.506;10.400;2024-03-08T07:18:58;97870.81;;;0.29;91.96
9423;BME280;65863;49.506;10.400;2024-03-08T07:21:43;97833.28;;;0.17;91.58
9423;BME280;65863;49.506;10.400;2024-03-08T07:24:28;97865.31;;;0.56;91.44
9423;BME280;65863;49.506;10.400;2024-03-08T07:27:23;97834.44;;;0.57;90.48
9423;BME280;65863;49.506;10.400;2024-03-08T07:30:07;97847.13;;;0.70;90.56
9423;BME280;65863;49.506;10.400;2024-03-08T07:32:54;97854.38;;;1.05;90.15
9423;BME280;65863;49.506;10.400;2024-03-08T07:35:38;97856.81;;;1.29;89.33
9423;BME280;65863;49.506;10.400;2024-03-08T07:38:23;97842.84;;;1.49;88.42
9423;BME280;65863;49.506;10.400;2024-03-08T07:41:07;97858.06;;;1.77;86.71
9423;BME280;65863;49.506;10.400;2024-03-08T07:43:52;97830.84;;;1.64;86.28
9423;BME280;65863;49.506;10.400;2024-03-08T07:46:36;97833.63;;;1.69;85.19
9423;BME280;65863;49.506;10.400;2024-03-08T07:49:21;97822.84;;;1.83;85.14
9423;BME280;65863;49.506;10.400;2024-03-08T07:52:05;97809.75;;;1.72;83.76
9423;BME280;65863;49.506;10.400;2024-03-08T07:54:51;97850.63;;;2.05;83.84
9423;BME280;65863;49.506;10.400;2024-03-08T07:57:35;97854.47;;;2.31;83.48
9423;BME280;65863;49.506;10.400;2024-03-08T08:00:21;97841.91;;;2.35;82.58
9423;BME280;65863;49.506;10.400;2024-03-08T08:03:05;97812.88;;;2.14;81.96
9423;BME280;65863;49.506;10.400;2024-03-08T08:05:51;97822.97;;;2.28;81.82
9423;BME280;65863;49.506;10.400;2024-03-08T08:08:36;97815.44;;;2.29;81.38
9423;BME280;65863;49.506;10.400;2024-03-08T08:11:20;97741.34;;;1.95;80.94
9423;BME280;65863;49.506;10.400;2024-03-08T08:14:04;97825.28;;;2.81;80.37
9423;BME280;65863;49.506;10.400;2024-03-08T08:16:48;97748.97;;;2.46;79.62
9423;BME280;65863;49.506;10.400;2024-03-08T08:19:35;97784.44;;;2.87;79.10
9423;BME280;65863;49.506;10.400;2024-03-08T08:22:20;97784.41;;;3.09;79.14
9423;BME280;65863;49.506;10.400;2024-03-08T08:25:04;97801.56;;;3.08;78.09
9423;BME280;65863;49.506;10.400;2024-03-08T08:27:48;97744.44;;;2.54;79.05
9423;BME280;65863;49.506;10.400;2024-03-08T08:30:33;97785.19;;;2.93;78.55
9423;BME280;65863;49.506;10.400;2024-03-08T08:33:17;97805.03;;;3.31;77.64
9423;BME280;65863;49.506;10.400;2024-03-08T08:36:01;97783.34;;;3.35;76.84
9423;BME280;65863;49.506;10.400;2024-03-08T08:38:47;97772.16;;;3.58;76.79
9423;BME280;65863;49.506;10.400;2024-03-08T08:41:31;97782.75;;;3.54;76.05
9423;BME280;65863;49.506;10.400;2024-03-08T08:44:16;97770.38;;;3.60;76.25
9423;BME280;65863;49.506;10.400;2024-03-08T08:47:01;97781.78;;;3.45;76.08
9423;BME280;65863;49.506;10.400;2024-03-08T08:49:47;97762.19;;;3.79;75.52
9423;BME280;65863;49.506;10.400;2024-03-08T08:52:32;97759.22;;;4.13;74.43
9423;BME280;65863;49.506;10.400;2024-03-08T08:55:18;97772.09;;;3.69;74.87
9423;BME280;65863;49.506;10.400;2024-03-08T08:58:05;97786.63;;;4.34;74.79
9423;BME280;65863;49.506;10.400;2024-03-08T09:00:50;97748.75;;;4.61;73.76
9423;BME280;65863;49.506;10.400;2024-03-08T09:03:36;97745.34;;;4.50;72.31
9423;BME280;65863;49.506;10.400;2024-03-08T09:06:20;97751.50;;;4.67;72.07
9423;BME280;65863;49.506;10.400;2024-03-08T09:09:05;97744.56;;;4.79;71.12
9423;BME280;65863;49.506;10.400;2024-03-08T09:11:49;97753.63;;;4.55;70.34
9423;BME280;65863;49.506;10.400;2024-03-08T09:14:35;97747.56;;;4.57;71.28
9423;BME280;65863;49.506;10.400;2024-03-08T09:17:19;97692.97;;;4.23;71.86
9423;BME280;65863;49.506;10.400;2024-03-08T09:20:10;97739.81;;;4.99;71.42
9423;BME280;65863;49.506;10.400;2024-03-08T09:22:58;97746.41;;;4.96;69.94
9423;BME280;65863;49.506;10.400;2024-03-08T09:25:42;97709.44;;;5.01;69.24
9423;BME280;65863;49.506;10.400;2024-03-08T09:28:27;97746.63;;;5.66;67.90
9423;BME280;65863;49.506;10.400;2024-03-08T09:31:12;97735.63;;;5.36;67.98
9423;BME280;65863;49.506;10.400;2024-03-08T09:33:55;97719.91;;;5.58;67.30
9423;BME280;65863;49.506;10.400;2024-03-08T09:36:40;97723.75;;;6.12;66.75
9423;BME280;65863;49.506;10.400;2024-03-08T09:39:25;97738.44;;;5.93;66.01
9423;BME280;65863;49.506;10.400;2024-03-08T09:42:11;97718.78;;;5.47;67.12
9423;BME280;65863;49.506;10.400;2024-03-08T09:44:59;97645.03;;;4.47;67.08
9423;BME280;65863;49.506;10.400;2024-03-08T09:47:44;97689.16;;;5.06;68.36
9423;BME280;65863;49.506;10.400;2024-03-08T09:50:28;97707.25;;;5.57;67.84
9423;BME280;65863;49.506;10.400;2024-03-08T09:53:13;97733.28;;;6.16;66.40
9423;BME280;65863;49.506;10.400;2024-03-08T09:55:57;97693.88;;;5.74;66.39
9423;BME280;65863;49.506;10.400;2024-03-08T09:58:43;97684.16;;;5.62;65.86
9423;BME280;65863;49.506;10.400;2024-03-08T10:01:46;97685.28;;;5.91;65.56
9423;BME280;65863;49.506;10.400;2024-03-08T10:04:30;97664.03;;;6.07;66.30
9423;BME280;65863;49.506;10.400;2024-03-08T10:07:16;97666.41;;;6.16;65.47
9423;BME280;65863;49.506;10.400;2024-03-08T10:10:01;97669.31;;;5.92;64.46
9423;BME280;65863;49.506;10.400;2024-03-08T10:12:46;97673.94;;;6.22;64.32
9423;BME280;65863;49.506;10.400;2024-03-08T10:15:30;97690.78;;;6.75;64.24
9423;BME280;65863;49.506;10.400;2024-03-08T10:18:17;97671.78;;;7.14;62.94
9423;BME280;65863;49.506;10.400;2024-03-08T10:21:06;97669.53;;;6.99;61.77
9423;BME280;65863;49.506;10.400;2024-03-08T10:23:51;97651.19;;;6.90;61.92
9423;BME280;65863;49.506;10.400;2024-03-08T10:26:36;97678.97;;;7.22;61.47
9423;BME280;65863;49.506;10.400;2024-03-08T10:29:20;97688.31;;;7.25;60.72
9423;BME280;65863;49.506;10.400;2024-03-08T10:32:05;97663.38;;;7.40;60.73
9423;BME280;65863;49.506;10.400;2024-03-08T10:34:51;97627.38;;;6.89;60.31
9423;BME280;65863;49.506;10.400;2024-03-08T10:37:44;97653.28;;;7.37;60.27
9423;BME280;65863;49.506;10.400;2024-03-08T10:40:29;97625.31;;;7.51;60.31
9423;BME280;65863;49.506;10.400;2024-03-08T10:43:21;97660.44;;;7.94;58.69
9423;BME280;65863;49.506;10.400;2024-03-08T10:46:30;97627.78;;;7.54;58.58
9423;BME280;65863;49.506;10.400;2024-03-08T10:49:25;97634.16;;;7.76;58.76
9423;BME280;65863;49.506;10.400;2024-03-08T10:52:11;97625.19;;;7.91;57.90
9423;BME280;65863;49.506;10.400;2024-03-08T10:54:57;97623.44;;;7.67;57.78
9423;BME280;65863;49.506;10.400;2024-03-08T10:57:42;97638.72;;;7.66;57.69
9423;BME280;65863;49.506;10.400;2024-03-08T11:00:27;97635.84;;;7.79;57.86
9423;BME280;65863;49.506;10.400;2024-03-08T11:03:44;97644.28;;;8.21;56.62
9423;BME280;65863;49.506;10.400;2024-03-08T11:09:28;97612.28;;;7.88;56.78
9423;BME280;65863;49.506;10.400;2024-03-08T11:12:25;97621.69;;;8.19;56.49
9423;BME280;65863;49.506;10.400;2024-03-08T11:15:12;97589.03;;;7.72;57.09
9423;BME280;65863;49.506;10.400;2024-03-08T11:18:02;97592.97;;;8.40;55.82
9423;BME280;65863;49.506;10.400;2024-03-08T11:20:48;97594.03;;;8.58;54.13
9423;BME280;65863;49.506;10.400;2024-03-08T11:23:34;97594.69;;;8.72;53.54
9423;BME280;65863;49.506;10.400;2024-03-08T11:26:20;97610.28;;;8.59;54.22
9423;BME280;65863;49.506;10.400;2024-03-08T11:32:20;97564.47;;;8.20;53.90
9423;BME280;65863;49.506;10.400;2024-03-08T11:35:18;97588.69;;;8.68;54.15
9423;BME280;65863;49.506;10.400;2024-03-08T11:38:04;97558.38;;;8.87;53.19
9423;BME280;65863;49.506;10.400;2024-03-08T11:40:48;97555.19;;;8.83;52.68
9423;BME280;65863;49.506;10.400;2024-03-08T11:43:33;97561.19;;;8.30;52.78
9423;BME280;65863;49.506;10.400;2024-03-08T11:46:19;97557.13;;;8.59;53.36
9423;BME280;65863;49.506;10.400;2024-03-08T11:49:04;97585.81;;;8.89;52.71
9423;BME280;65863;49.506;10.400;2024-03-08T11:51:53;97544.81;;;9.07;52.68
9423;BME280;65863;49.506;10.400;2024-03-08T11:54:51;97573.16;;;9.55;52.27
9423;BME280;65863;49.506;10.400;2024-03-08T11:57:36;97540.94;;;9.18;51.40
9423;BME280;65863;49.506;10.400;2024-03-08T12:00:20;97534.78;;;9.11;51.19
9423;BME280;65863;49.506;10.400;2024-03-08T12:03:09;97563.13;;;9.83;51.56
9423;BME280;65863;49.506;10.400;2024-03-08T12:06:00;97530.59;;;9.64;49.76
9423;BME280;65863;49.506;10.400;2024-03-08T12:08:48;97533.94;;;9.47;50.32
9423;BME280;65863;49.506;10.400;2024-03-08T12:11:33;97486.63;;;9.13;50.27
9423;BME280;65863;49.506;10.400;2024-03-08T12:14:17;97522.00;;;9.86;50.35
9423;BME280;65863;49.506;10.400;2024-03-08T12:17:02;97520.13;;;9.73;49.25
9423;BME280;65863;49.506;10.400;2024-03-08T12:19:48;97515.47;;;9.91;49.07
9423;BME280;65863;49.506;10.400;2024-03-08T12:22:33;97508.53;;;9.92;49.58
9423;BME280;65863;49.506;10.400;2024-03-08T12:25:17;97488.75;;;10.05;49.07
9423;BME280;65863;49.506;10.400;2024-03-08T12:28:12;97496.38;;;10.20;48.71
9423;BME280;65863;49.506;10.400;2024-03-08T12:30:57;97488.34;;;10.16;47.96
9423;BME280;65863;49.506;10.400;2024-03-08T12:33:51;97505.16;;;10.32;48.40
9423;BME280;65863;49.506;10.400;2024-03-08T12:36:35;97505.84;;;10.56;48.54
9423;BME280;65863;49.506;10.400;2024-03-08T12:39:22;97469.63;;;10.19;48.08
9423;BME280;65863;49.506;10.400;2024-03-08T12:42:10;97481.56;;;10.50;47.08
9423;BME280;65863;49.506;10.400;2024-03-08T12:45:02;97502.16;;;10.30;47.77
9423;BME280;65863;49.506;10.400;2024-03-08T12:47:51;97420.88;;;10.07;47.71
9423;BME280;65863;49.506;10.400;2024-03-08T12:50:38;97459.81;;;10.59;47.15
9423;BME280;65863;49.506;10.400;2024-03-08T12:53:23;97468.13;;;10.33;47.04
9423;BME280;65863;49.506;10.400;2024-03-08T12:56:14;97449.06;;;10.24;47.91
9423;BME280;65863;49.506;10.400;2024-03-08T12:59:01;97459.88;;;10.92;46.65
9423;BME280;65863;49.506;10.400;2024-03-08T13:01:46;97440.03;;;10.90;46.65
9423;BME280;65863;49.506;10.400;2024-03-08T13:04:31;97450.81;;;11.09;46.39
9423;BME280;65863;49.506;10.400;2024-03-08T13:07:15;97434.22;;;10.55;46.22
9423;BME280;65863;49.506;10.400;2024-03-08T13:10:00;97423.41;;;10.84;46.53
9423;BME280;65863;49.506;10.400;2024-03-08T13:12:44;97448.88;;;11.19;45.75
9423;BME280;65863;49.506;10.400;2024-03-08T13:15:28;97392.22;;;11.05;44.65
9423;BME280;65863;49.506;10.400;2024-03-08T13:18:13;97438.88;;;11.51;43.76
9423;BME280;65863;49.506;10.400;2024-03-08T13:21:01;97425.69;;;10.78;43.68
9423;BME280;65863;49.506;10.400;2024-03-08T13:23:54;97443.06;;;11.17;42.87
9423;BME280;65863;49.506;10.400;2024-03-08T13:26:39;97435.09;;;11.31;43.32
9423;BME280;65863;49.506;10.400;2024-03-08T13:29:22;97373.75;;;10.61;43.08
9423;BME280;65863;49.506;10.400;2024-03-08T13:32:06;97417.78;;;11.17;41.84
9423;BME280;65863;49.506;10.400;2024-03-08T13:34:50;97353.66;;;9.76;42.37
9423;BME280;65863;49.506;10.400;2024-03-08T13:37:34;97385.63;;;10.29;42.87
9423;BME280;65863;49.506;10.400;2024-03-08T13:40:19;97432.31;;;10.98;41.47
9423;BME280;65863;49.506;10.400;2024-03-08T13:43:03;97411.56;;;10.93;41.24
9423;BME280;65863;49.506;10.400;2024-03-08T13:45:48;97420.94;;;11.21;41.98
9423;BME280;65863;49.506;10.400;2024-03-08T13:48:34;97407.72;;;10.81;41.66
9423;BME280;65863;49.506;10.400;2024-03-08T13:51:18;97408.78;;;10.93;41.80
9423;BME280;65863;49.506;10.400;2024-03-08T13:54:03;97361.03;;;10.93;42.12
9423;BME280;65863;49.506;10.400;2024-03-08T13:56:50;97377.25;;;11.02;42.10
9423;BME280;65863;49.506;10.400;2024-03-08T13:59:38;97349.00;;;11.00;41.81
9423;BME280;65863;49.506;10.400;2024-03-08T14:02:22;97313.16;;;10.58;42.59
9423;BME280;65863;49.506;10.400;2024-03-08T14:05:08;97319.38;;;11.07;42.53
9423;BME280;65863;49.506;10.400;2024-03-08T14:07:53;97379.09;;;11.58;41.90
9423;BME280;65863;49.506;10.400;2024-03-08T14:10:38;97344.09;;;11.09;42.18
9423;BME280;65863;49.506;10.400;2024-03-08T14:13:22;97335.53;;;11.24;42.63
9423;BME280;65863;49.506;10.400;2024-03-08T14:16:07;97378.78;;;11.46;42.16
9423;BME280;65863;49.506;10.400;2024-03-08T14:18:54;97322.75;;;10.80;42.02
9423;BME280;65863;49.506;10.400;2024-03-08T14:21:38;97346.69;;;11.07;41.92
9423;BME280;65863;49.506;10.400;2024-03-08T14:24:23;97343.03;;;10.96;42.22
9423;BME280;65863;49.506;10.400;2024-03-08T14:27:08;97347.19;;;11.38;42.23
9423;BME280;65863;49.506;10.400;2024-03-08T14:29:53;97336.16;;;11.15;42.83
9423;BME280;65863;49.506;10.400;2024-03-08T14:32:38;97327.56;;;10.88;42.66
9423;BME280;65863;49.506;10.400;2024-03-08T14:35:23;97324.00;;;11.12;42.62
9423;BME280;65863;49.506;10.400;2024-03-08T14:38:09;97347.50;;;11.25;42.22
9423;BME280;65863;49.506;10.400;2024-03-08T14:40:56;97341.75;;;11.40;42.04
9423;BME280;65863;49.506;10.400;2024-03-08T14:43:42;97304.44;;;11.22;41.70
9423;BME280;65863;49.506;10.400;2024-03-08T14:46:28;97340.13;;;11.12;42.27
9423;BME280;65863;49.506;10.400;2024-03-08T14:49:13;97325.88;;;11.10;41.86